createdAt,value
2022-10-31T00:01:41.813Z,35.10
2022-10-31T00:04:10.772Z,42.53
2022-10-31T00:06:39.737Z,34.87
2022-10-31T00:09:08.653Z,32.13
2022-10-31T00:11:37.630Z,41.87
2022-10-31T00:14:06.875Z,27.70
2022-10-31T00:16:37.221Z,33.30
2022-10-31T00:19:08.993Z,38.00
2022-10-31T00:21:37.963Z,43.73
2022-10-31T00:24:07.616Z,32.10
2022-10-31T00:26:36.600Z,33.63
2022-10-31T00:29:05.633Z,32.00
2022-10-31T00:31:35.893Z,32.70
2022-10-31T00:34:04.857Z,31.40
2022-10-31T00:36:33.765Z,34.83
2022-10-31T00:39:02.882Z,33.07
2022-10-31T00:41:31.823Z,34.53
2022-10-31T00:44:00.831Z,33.63
2022-10-31T00:46:30.012Z,35.37
2022-10-31T00:49:00.294Z,32.87
2022-10-31T00:51:29.348Z,32.53
2022-10-31T00:53:58.261Z,28.27
2022-10-31T00:56:27.235Z,35.67
2022-10-31T00:58:56.306Z,23.33
2022-10-31T01:01:25.349Z,29.70
2022-10-31T01:03:54.425Z,29.50
2022-10-31T01:06:25.582Z,22.57
2022-10-31T01:08:54.498Z,25.67
2022-10-31T01:11:24.884Z,28.03
2022-10-31T01:13:55.023Z,40.30
2022-10-31T01:16:26.859Z,30.13
2022-10-31T01:18:55.876Z,31.83
2022-10-31T01:21:27.996Z,29.03
2022-10-31T01:24:02.907Z,29.93
2022-10-31T01:26:33.747Z,27.63
2022-10-31T01:29:06.139Z,30.47
2022-10-31T01:31:38.204Z,25.93
2022-10-31T01:34:08.501Z,39.70
2022-10-31T01:36:40.571Z,25.90
2022-10-31T01:39:11.959Z,30.07
2022-10-31T01:41:43.041Z,33.10
2022-10-31T01:44:45.838Z,32.63
2022-10-31T01:47:19.404Z,35.00
2022-10-31T01:49:51.110Z,40.13
2022-10-31T01:52:26.111Z,31.83
2022-10-31T01:55:00.059Z,36.37
2022-10-31T01:57:30.833Z,37.33
2022-10-31T02:00:02.561Z,35.17
2022-10-31T02:02:43.642Z,33.13
2022-10-31T02:05:18.144Z,39.87
2022-10-31T02:07:55.388Z,36.87
2022-10-31T02:10:30.964Z,39.47
2022-10-31T02:13:03.465Z,51.40
2022-10-31T02:15:34.150Z,38.37
2022-10-31T02:18:03.833Z,39.73
2022-10-31T02:20:40.371Z,38.03
2022-10-31T02:23:54.621Z,39.90
2022-10-31T02:26:43.649Z,44.37
2022-10-31T02:29:51.860Z,37.13
2022-10-31T02:32:28.518Z,40.87
2022-10-31T02:35:05.621Z,43.50
2022-10-31T02:37:39.721Z,44.33
2022-10-31T02:40:17.458Z,35.93
2022-10-31T02:45:56.712Z,40.73
2022-10-31T02:48:30.418Z,59.27
2022-10-31T02:51:02.191Z,46.57
2022-10-31T02:53:35.081Z,42.27
2022-10-31T02:56:08.441Z,41.00
2022-10-31T02:58:41.971Z,38.27
2022-10-31T03:01:38.453Z,45.47
2022-10-31T03:04:31.127Z,36.73
2022-10-31T03:07:06.488Z,37.23
2022-10-31T03:09:44.103Z,52.60
2022-10-31T03:12:16.976Z,52.07
2022-10-31T03:14:55.240Z,38.07
2022-10-31T03:17:28.544Z,42.13
2022-10-31T03:20:02.812Z,54.67
2022-10-31T03:22:34.489Z,39.90
2022-10-31T03:25:06.519Z,42.93
2022-10-31T03:27:38.008Z,45.33
2022-10-31T03:30:09.102Z,48.77
2022-10-31T03:32:56.597Z,42.83
2022-10-31T03:35:29.455Z,40.17
2022-10-31T03:38:05.452Z,43.93
2022-10-31T03:40:39.485Z,47.00
2022-10-31T03:43:15.687Z,46.37
2022-10-31T03:45:48.508Z,41.33
2022-10-31T03:48:20.317Z,43.27
2022-10-31T03:50:55.635Z,40.50
2022-10-31T03:53:32.149Z,41.63
2022-10-31T03:56:06.089Z,47.17
2022-10-31T03:58:40.304Z,43.83
2022-10-31T04:01:13.730Z,43.47
2022-10-31T04:03:43.389Z,50.17
2022-10-31T04:06:18.878Z,53.23
2022-10-31T04:08:53.181Z,40.40
2022-10-31T04:11:26.990Z,42.60
2022-10-31T04:14:14.741Z,54.13
2022-10-31T04:16:45.664Z,55.23
2022-10-31T04:19:16.377Z,49.60
2022-10-31T04:21:46.665Z,57.53
2022-10-31T04:24:15.633Z,55.27
2022-10-31T04:26:44.524Z,64.67
2022-10-31T04:29:13.551Z,50.97
2022-10-31T04:31:42.518Z,39.83
2022-10-31T04:34:12.002Z,47.00
2022-10-31T04:36:41.116Z,59.00
2022-10-31T04:39:12.058Z,41.07
2022-10-31T04:41:46.758Z,52.37
2022-10-31T04:44:18.970Z,49.83
2022-10-31T04:46:51.913Z,53.80
2022-10-31T04:49:20.862Z,45.00
2022-10-31T04:51:49.956Z,54.57
2022-10-31T04:54:20.706Z,81.43
2022-10-31T04:57:18.372Z,53.10
2022-10-31T04:59:48.048Z,51.57
2022-10-31T05:02:17.180Z,49.43
2022-10-31T05:04:52.509Z,50.27
2022-10-31T05:07:21.468Z,47.20
2022-10-31T05:09:51.787Z,46.50
2022-10-31T05:12:22.159Z,73.27
2022-10-31T05:15:09.911Z,52.03
2022-10-31T05:17:58.174Z,68.83
2022-10-31T05:20:56.351Z,59.43
2022-10-31T05:23:51.459Z,89.03
2022-10-31T05:26:22.064Z,44.73
2022-10-31T05:28:50.979Z,39.87
2022-10-31T05:31:19.979Z,39.73
2022-10-31T05:33:50.361Z,49.27
2022-10-31T05:36:37.838Z,40.70
2022-10-31T05:39:13.985Z,45.03
2022-10-31T05:41:46.803Z,51.33
2022-10-31T05:44:24.398Z,40.73
2022-10-31T05:47:10.080Z,55.03
2022-10-31T05:50:12.001Z,47.53
2022-10-31T05:52:57.693Z,77.00
2022-10-31T05:55:34.990Z,73.77
2022-10-31T05:58:13.501Z,47.80
2022-10-31T06:00:47.371Z,45.43
2022-10-31T06:03:17.664Z,49.57
2022-10-31T06:05:58.287Z,69.13
2022-10-31T06:08:32.391Z,56.93
2022-10-31T06:11:05.731Z,43.03
2022-10-31T06:13:54.583Z,46.17
2022-10-31T06:16:33.271Z,47.60
2022-10-31T06:19:14.044Z,47.50
2022-10-31T06:21:43.279Z,34.00
2022-10-31T06:24:12.484Z,67.00
2022-10-31T06:27:00.980Z,71.23
2022-10-31T06:29:31.355Z,79.67
2022-10-31T06:32:05.637Z,46.23
2022-10-31T06:34:40.124Z,52.40
2022-10-31T06:37:10.936Z,49.37
2022-10-31T06:39:41.831Z,104.90
2022-10-31T06:42:13.085Z,54.50
2022-10-31T06:44:43.369Z,41.57
2022-10-31T06:47:50.832Z,45.57
2022-10-31T06:50:31.272Z,86.80
2022-10-31T06:53:01.177Z,66.87
2022-10-31T06:55:30.619Z,37.17
2022-10-31T06:58:03.246Z,41.03
2022-10-31T07:00:34.875Z,41.83
2022-10-31T07:03:09.206Z,55.13
2022-10-31T07:05:38.763Z,34.33
2022-10-31T07:08:09.722Z,65.67
2022-10-31T07:10:41.046Z,73.13
2022-10-31T07:13:14.043Z,30.63
2022-10-31T07:15:46.489Z,31.00
2022-10-31T07:18:15.868Z,32.33
2022-10-31T07:20:45.374Z,29.50
2022-10-31T07:23:15.615Z,29.00
2022-10-31T07:25:48.945Z,37.63
2022-10-31T07:28:22.122Z,34.03
2022-10-31T07:30:56.250Z,39.13
2022-10-31T07:33:26.936Z,36.97
2022-10-31T07:36:16.543Z,29.97
2022-10-31T07:38:47.637Z,63.35
2022-10-31T07:41:16.801Z,43.83
2022-10-31T07:43:47.404Z,40.97
2022-10-31T07:46:20.329Z,39.97
2022-10-31T07:49:07.947Z,43.40
2022-10-31T07:51:55.360Z,27.00
2022-10-31T07:54:26.854Z,42.37
2022-10-31T07:56:56.555Z,34.97
2022-10-31T07:59:26.704Z,26.27
2022-10-31T08:01:57.891Z,34.43
2022-10-31T08:04:49.496Z,23.73
2022-10-31T08:07:39.252Z,35.00
2022-10-31T08:10:14.030Z,68.17
2022-10-31T08:12:43.094Z,39.83
2022-10-31T08:15:12.533Z,49.97
2022-10-31T08:17:42.779Z,25.90
2022-10-31T08:20:13.480Z,24.67
2022-10-31T08:22:56.187Z,50.77
2022-10-31T08:25:25.687Z,25.57
2022-10-31T08:27:56.540Z,27.50
2022-10-31T08:30:31.955Z,32.03
2022-10-31T08:33:22.460Z,23.73
2022-10-31T08:36:10.379Z,30.83
2022-10-31T08:39:02.027Z,21.97
2022-10-31T08:41:32.237Z,21.77
2022-10-31T08:44:02.681Z,25.90
2022-10-31T08:46:32.622Z,41.85
2022-10-31T08:49:03.031Z,21.87
2022-10-31T08:51:32.047Z,27.47
2022-10-31T08:54:01.012Z,21.77
2022-10-31T08:56:36.163Z,18.20
2022-10-31T08:59:09.591Z,19.83
2022-10-31T09:02:09.638Z,21.53
2022-10-31T09:04:40.162Z,28.20
2022-10-31T09:07:24.545Z,20.93
2022-10-31T09:09:53.489Z,19.03
2022-10-31T09:12:22.598Z,18.17
2022-10-31T09:15:10.615Z,17.87
2022-10-31T09:17:49.568Z,25.87
2022-10-31T09:20:41.863Z,18.13
2022-10-31T09:23:13.902Z,26.70
2022-10-31T09:25:49.168Z,17.27
2022-10-31T09:28:36.275Z,20.30
2022-10-31T09:31:14.149Z,27.00
2022-10-31T09:33:57.533Z,17.10
2022-10-31T09:36:48.105Z,22.23
2022-10-31T09:39:21.540Z,21.83
2022-10-31T09:42:17.254Z,31.37
2022-10-31T09:44:57.877Z,21.07
2022-10-31T09:47:41.500Z,25.30
2022-10-31T09:50:44.274Z,22.67
2022-10-31T09:53:54.489Z,22.87
2022-10-31T09:56:27.625Z,24.17
2022-10-31T09:59:01.795Z,25.70
2022-10-31T10:01:48.303Z,27.83
2022-10-31T10:04:33.083Z,22.85
2022-10-31T10:07:40.842Z,24.17
2022-10-31T10:10:39.815Z,22.38
2022-10-31T10:13:33.399Z,20.20
2022-10-31T10:16:21.963Z,18.13
2022-10-31T10:19:03.764Z,18.37
2022-10-31T10:21:45.583Z,19.60
2022-10-31T10:24:31.999Z,19.67
2022-10-31T10:27:19.205Z,25.73
2022-10-31T10:30:00.084Z,14.77
2022-10-31T10:32:31.752Z,19.10
2022-10-31T10:35:04.685Z,17.33
2022-10-31T10:37:37.877Z,17.98
2022-10-31T10:40:15.255Z,19.23
2022-10-31T10:43:10.049Z,16.92
2022-10-31T10:45:58.127Z,16.45
2022-10-31T10:48:38.837Z,15.38
2022-10-31T10:51:25.618Z,16.45
2022-10-31T10:54:15.685Z,14.70
2022-10-31T10:56:56.319Z,15.25
2022-10-31T10:59:27.292Z,16.98
2022-10-31T11:01:56.443Z,17.42
2022-10-31T11:04:33.689Z,14.65
2022-10-31T11:07:05.025Z,15.63
2022-10-31T11:09:34.704Z,18.00
2022-10-31T11:12:09.735Z,16.83
2022-10-31T11:14:47.682Z,13.15
2022-10-31T11:17:27.186Z,13.48
2022-10-31T11:20:05.398Z,13.70
2022-10-31T11:22:34.387Z,14.43
2022-10-31T11:25:13.545Z,13.00
2022-10-31T11:27:42.531Z,15.07
2022-10-31T11:30:16.132Z,15.10
2022-10-31T11:32:49.886Z,11.70
2022-10-31T11:35:21.696Z,18.52
2022-10-31T11:37:54.303Z,12.25
2022-10-31T11:40:26.275Z,16.63
2022-10-31T11:42:58.883Z,17.75
2022-10-31T11:45:34.899Z,15.43
2022-10-31T11:48:16.745Z,12.38
2022-10-31T11:50:51.665Z,14.27
2022-10-31T11:53:26.370Z,12.23
2022-10-31T11:56:06.646Z,10.70
2022-10-31T11:58:35.616Z,14.07
2022-10-31T12:01:06.138Z,13.10
2022-10-31T12:03:45.527Z,11.30
2022-10-31T12:06:20.509Z,11.10
2022-10-31T12:08:49.641Z,10.73
2022-10-31T12:11:37.183Z,8.10
2022-10-31T12:14:20.103Z,10.18
2022-10-31T12:16:57.892Z,10.15
2022-10-31T12:19:40.012Z,9.45
2022-10-31T12:22:18.958Z,8.40
2022-10-31T12:24:58.969Z,10.02
2022-10-31T12:27:41.288Z,10.82
2022-10-31T12:30:17.515Z,13.48
2022-10-31T12:33:04.385Z,10.20
2022-10-31T12:35:43.186Z,11.75
2022-10-31T12:38:34.959Z,15.13
2022-10-31T12:41:17.744Z,13.25
2022-10-31T12:43:52.965Z,11.68
2022-10-31T12:46:41.062Z,13.85
2022-10-31T12:49:23.873Z,10.45
2022-10-31T12:52:02.111Z,11.90
2022-10-31T12:54:54.606Z,12.63
2022-10-31T12:57:30.227Z,12.27
2022-10-31T13:00:03.924Z,11.75
2022-10-31T13:02:39.736Z,12.23
2022-10-31T13:05:19.714Z,9.68
2022-10-31T13:07:54.294Z,8.30
2022-10-31T13:10:27.641Z,10.52
2022-10-31T13:13:03.004Z,17.63
2022-10-31T13:15:42.239Z,9.85
2022-10-31T13:18:20.361Z,8.15
2022-10-31T13:20:55.528Z,11.02
2022-10-31T13:24:01.152Z,12.90
2022-10-31T13:26:38.856Z,10.48
2022-10-31T13:29:18.366Z,8.07
2022-10-31T13:31:47.538Z,8.48
2022-10-31T13:34:25.818Z,12.38
2022-10-31T13:37:03.848Z,14.30
2022-10-31T13:39:46.884Z,13.77
2022-10-31T13:42:21.413Z,11.63
2022-10-31T13:44:50.375Z,11.07
2022-10-31T13:47:28.367Z,11.10
2022-10-31T13:50:08.429Z,10.77
2022-10-31T13:52:38.774Z,15.10
2022-10-31T13:55:40.690Z,9.27
2022-10-31T13:58:24.915Z,9.55
2022-10-31T14:01:18.130Z,9.60
2022-10-31T14:04:06.080Z,9.32
2022-10-31T14:06:42.826Z,12.13
2022-10-31T14:09:30.395Z,14.40
2022-10-31T14:12:03.053Z,10.05
2022-10-31T14:14:37.692Z,9.18
2022-10-31T14:17:07.582Z,13.05
2022-10-31T14:19:36.569Z,15.65
2022-10-31T14:22:05.464Z,14.30
2022-10-31T14:24:38.648Z,9.57
2022-10-31T14:27:34.718Z,12.82
2022-10-31T14:30:17.749Z,11.10
2022-10-31T14:32:46.944Z,14.07
2022-10-31T14:35:21.325Z,12.85
2022-10-31T14:38:13.297Z,10.00
2022-10-31T14:40:55.366Z,17.88
2022-10-31T14:43:52.099Z,14.07
2022-10-31T14:46:44.475Z,14.48
2022-10-31T14:49:33.481Z,20.70
2022-10-31T14:52:03.262Z,16.63
2022-10-31T14:54:37.127Z,17.60
2022-10-31T14:57:15.534Z,17.25
2022-10-31T14:59:50.184Z,18.52
2022-10-31T15:02:25.699Z,12.63
2022-10-31T15:04:57.179Z,16.57
2022-10-31T15:07:27.777Z,14.77
2022-10-31T15:10:01.081Z,16.85
2022-10-31T15:12:34.222Z,16.40
2022-10-31T15:15:16.006Z,19.30
2022-10-31T15:17:49.941Z,18.20
2022-10-31T15:20:21.949Z,13.73
2022-10-31T15:22:51.413Z,19.73
2022-10-31T15:25:22.479Z,13.33
2022-10-31T15:27:54.563Z,12.48
2022-10-31T15:30:25.656Z,12.03
2022-10-31T15:32:58.829Z,15.93
2022-10-31T15:35:30.327Z,12.50
2022-10-31T15:38:02.443Z,11.13
2022-10-31T15:40:31.980Z,15.23
2022-10-31T15:43:05.118Z,12.37
2022-10-31T15:45:34.448Z,19.73
2022-10-31T15:48:05.997Z,13.37
2022-10-31T15:50:41.456Z,15.77
2022-10-31T15:53:19.232Z,13.83
2022-10-31T15:55:51.920Z,15.43
2022-10-31T15:58:22.878Z,17.88
2022-10-31T16:01:01.390Z,17.63
2022-10-31T16:03:32.355Z,11.73
2022-10-31T16:06:04.515Z,16.37
2022-10-31T16:08:37.936Z,14.50
2022-10-31T16:11:23.571Z,16.67
2022-10-31T16:13:59.908Z,14.60
2022-10-31T16:16:37.379Z,16.00
2022-10-31T16:19:14.278Z,17.97
2022-10-31T16:21:43.723Z,17.10
2022-10-31T16:24:20.546Z,21.00
2022-10-31T16:26:51.883Z,18.93
2022-10-31T16:29:43.911Z,23.83
2022-10-31T16:32:32.426Z,31.73
2022-10-31T16:35:27.269Z,22.33
2022-10-31T16:37:56.560Z,28.10
2022-10-31T16:40:26.812Z,23.87
2022-10-31T16:42:58.778Z,23.77
2022-10-31T16:45:31.535Z,26.70
2022-10-31T16:48:12.382Z,29.27
2022-10-31T16:50:41.350Z,28.10
2022-10-31T16:53:14.551Z,29.87
2022-10-31T16:55:47.144Z,28.47
2022-10-31T16:58:23.591Z,26.53
2022-10-31T17:00:54.695Z,28.07
2022-10-31T17:03:24.135Z,28.57
2022-10-31T17:05:53.130Z,35.23
2022-10-31T17:08:22.071Z,31.97
2022-10-31T17:10:54.235Z,29.63
2022-10-31T17:13:26.014Z,23.87
2022-10-31T17:15:58.436Z,29.13
2022-10-31T17:18:28.108Z,29.50
2022-10-31T17:20:59.996Z,31.13
2022-10-31T17:23:30.349Z,34.37
2022-10-31T17:25:59.466Z,26.60
2022-10-31T17:28:28.474Z,34.10
2022-10-31T17:30:59.219Z,31.10
2022-10-31T17:33:28.523Z,29.67
2022-10-31T17:35:57.560Z,24.43
2022-10-31T17:38:26.491Z,24.63
2022-10-31T17:40:55.457Z,24.73
2022-10-31T17:43:26.982Z,22.37
2022-10-31T17:45:55.911Z,23.10
2022-10-31T17:48:26.295Z,24.57
2022-10-31T17:50:55.387Z,21.93
2022-10-31T17:53:24.299Z,22.00
2022-10-31T17:55:53.199Z,24.10
2022-10-31T17:58:22.190Z,20.50
2022-10-31T18:00:51.527Z,25.37
2022-10-31T18:03:20.511Z,28.53
2022-10-31T18:05:58.734Z,25.07
2022-10-31T18:08:28.925Z,24.33
2022-10-31T18:10:59.849Z,17.83
2022-10-31T18:13:29.386Z,33.60
2022-10-31T18:15:58.322Z,27.20
2022-10-31T18:18:27.283Z,28.10
2022-10-31T18:21:00.036Z,24.43
2022-10-31T18:23:29.067Z,23.20
2022-10-31T18:25:58.023Z,24.23
2022-10-31T18:28:27.032Z,24.37
2022-10-31T18:30:56.004Z,23.83
2022-10-31T18:33:24.912Z,26.60
2022-10-31T18:35:53.835Z,21.87
2022-10-31T18:38:24.456Z,23.97
2022-10-31T18:40:53.436Z,23.33
2022-10-31T18:43:22.424Z,20.90
2022-10-31T18:45:56.740Z,23.47
2022-10-31T18:48:28.283Z,25.33
2022-10-31T18:50:58.028Z,25.13
2022-10-31T18:53:28.399Z,20.40
2022-10-31T18:55:57.436Z,20.80
2022-10-31T18:58:26.505Z,22.60
2022-10-31T19:00:55.902Z,23.93
2022-10-31T19:03:26.232Z,26.57
2022-10-31T19:05:56.896Z,21.10
2022-10-31T19:10:57.411Z,23.13
2022-10-31T19:13:26.343Z,25.80
2022-10-31T19:15:55.281Z,23.47
2022-10-31T19:18:24.236Z,23.83
2022-10-31T19:20:53.223Z,39.63
2022-10-31T19:23:22.161Z,30.07
2022-10-31T19:25:52.650Z,26.17
2022-10-31T19:28:21.652Z,29.03
2022-10-31T19:30:55.190Z,27.30
2022-10-31T19:33:27.839Z,25.60
2022-10-31T19:36:01.229Z,27.40
2022-10-31T19:38:30.614Z,28.53
2022-10-31T19:41:03.081Z,22.53
2022-10-31T19:43:32.106Z,30.07
2022-10-31T19:46:03.584Z,26.77
2022-10-31T19:48:32.979Z,29.23
2022-10-31T19:51:03.196Z,26.30
2022-10-31T19:53:32.567Z,24.00
2022-10-31T19:56:03.373Z,26.83
2022-10-31T19:58:34.292Z,25.13
2022-10-31T20:01:08.714Z,28.63
2022-10-31T20:03:39.871Z,25.47
2022-10-31T20:06:15.007Z,30.10
2022-10-31T20:08:43.987Z,23.90
2022-10-31T20:11:14.386Z,29.47
2022-10-31T20:13:43.602Z,28.90
2022-10-31T20:16:14.465Z,28.17
2022-10-31T20:18:43.773Z,30.90
2022-10-31T20:21:16.705Z,29.57
2022-10-31T20:23:46.956Z,25.60
2022-10-31T20:26:19.153Z,24.57
2022-10-31T20:28:49.037Z,23.90
2022-10-31T20:31:20.928Z,32.47
2022-10-31T20:33:50.593Z,24.10
2022-10-31T20:36:20.985Z,25.73
2022-10-31T20:38:50.792Z,24.50
2022-10-31T20:41:21.403Z,31.10
2022-10-31T20:43:50.328Z,23.80
2022-10-31T20:46:21.163Z,26.27
2022-10-31T20:48:50.335Z,30.77
2022-10-31T20:51:21.342Z,27.17
2022-10-31T20:53:50.656Z,29.90
2022-10-31T20:56:22.693Z,30.33
2022-10-31T20:58:52.217Z,31.23
2022-10-31T21:01:23.467Z,32.43
2022-10-31T21:03:53.667Z,28.13
2022-10-31T21:06:23.682Z,30.23
2022-10-31T21:08:53.807Z,30.50
2022-10-31T21:11:25.483Z,26.13
2022-10-31T21:13:55.183Z,29.33
2022-10-31T21:16:26.499Z,30.40
2022-10-31T21:18:55.792Z,35.43
2022-10-31T21:21:29.011Z,33.00
2022-10-31T21:24:04.710Z,32.87
2022-10-31T21:26:37.793Z,29.40
2022-10-31T21:29:08.143Z,33.33
2022-10-31T21:31:38.376Z,36.00
2022-10-31T21:34:08.272Z,32.00
2022-10-31T21:36:37.268Z,32.13
2022-10-31T21:39:07.664Z,38.53
2022-10-31T21:41:38.224Z,33.07
2022-10-31T21:44:07.528Z,36.87
2022-10-31T21:46:38.486Z,35.30
2022-10-31T21:49:07.564Z,37.07
2022-10-31T21:51:37.712Z,40.13
2022-10-31T21:54:28.295Z,33.70
2022-10-31T21:57:00.211Z,31.87
2022-10-31T21:59:29.519Z,34.27
2022-10-31T22:02:00.515Z,36.93
2022-10-31T22:04:30.110Z,45.70
2022-10-31T22:06:59.055Z,44.73
2022-10-31T22:09:27.957Z,35.50
2022-10-31T22:11:59.745Z,38.77
2022-10-31T22:14:28.736Z,33.53
2022-10-31T22:16:57.741Z,37.53
2022-10-31T22:19:26.755Z,38.37
2022-10-31T22:21:55.631Z,43.43
2022-10-31T22:24:24.631Z,33.97
2022-10-31T22:26:53.575Z,36.67
2022-10-31T22:29:23.888Z,37.53
2022-10-31T22:31:57.330Z,32.17
2022-10-31T22:34:28.618Z,36.57
2022-10-31T22:36:57.790Z,39.20
2022-10-31T22:39:26.746Z,39.03
2022-10-31T22:41:55.721Z,38.63
2022-10-31T22:44:25.989Z,39.93
2022-10-31T22:46:54.926Z,38.70
2022-10-31T22:49:23.927Z,33.53
2022-10-31T22:51:53.087Z,41.90
2022-10-31T22:54:22.224Z,37.87
2022-10-31T22:56:51.173Z,39.37
2022-10-31T22:59:20.218Z,39.50
2022-10-31T23:01:50.558Z,42.13
2022-10-31T23:04:19.587Z,37.07
2022-10-31T23:06:49.148Z,40.53
2022-10-31T23:09:18.721Z,41.33
2022-10-31T23:11:47.914Z,38.20
2022-10-31T23:14:20.731Z,30.70
2022-10-31T23:16:53.416Z,32.23
2022-10-31T23:19:24.304Z,34.30
2022-10-31T23:21:55.873Z,40.57
2022-10-31T23:24:27.906Z,35.30
2022-10-31T23:27:09.750Z,43.00
2022-10-31T23:29:45.061Z,43.03
2022-10-31T23:32:18.506Z,46.97
2022-10-31T23:34:48.488Z,37.47
2022-10-31T23:37:18.782Z,39.40
2022-10-31T23:39:48.193Z,34.00
2022-10-31T23:42:18.627Z,38.37
2022-10-31T23:44:47.901Z,38.13
2022-10-31T23:47:18.769Z,34.97
2022-10-31T23:49:47.983Z,37.77
2022-10-31T23:52:17.347Z,33.07
2022-10-31T23:54:46.396Z,33.73
2022-10-31T23:57:17.020Z,30.20
2022-10-31T23:59:46.475Z,34.03
